Time;durP1;ratioP1;P1;durP2;ratioP2;P2;SDS_P1;SDS_P2;PMS_P1;PMS_P2;Temp;Humidity;BMP_temperature;BMP_pressure;BME280_temperature;BME280_humidity;BME280_pressure;Samples;Min_cycle;Max_cycle;Signal;HPM_P1;HPM_P2
2023/10/27 00:01:38;;;;;;;13.63;7.32;;;;;;;13.73;76.24;98739.97;5076651;28;20391;-81
2023/10/27 00:04:04;;;;;;;11.07;6.40;;;;;;;13.67;77.83;98756.13;5069334;28;20052;-81
2023/10/27 00:06:32;;;;;;;;;;;;;;;13.73;79.71;98758.50;5069645;28;20032;-81
2023/10/27 00:08:58;;;;;;;16.98;6.95;;;;;;;13.71;80.03;98744.44;5065067;28;19912;-80
2023/10/27 00:11:25;;;;;;;13.93;7.90;;;;;;;13.69;80.44;98745.47;5049437;28;20031;-80
2023/10/27 00:13:51;;;;;;;13.82;6.97;;;;;;;13.73;80.26;98747.91;5049765;28;20032;-80
2023/10/27 00:16:16;;;;;;;12.50;6.13;;;;;;;13.49;79.30;98741.84;5058379;28;20044;-80
2023/10/27 00:18:42;;;;;;;19.38;7.03;;;;;;;13.52;79.90;98754.13;5070181;28;20082;-81
2023/10/27 00:21:07;;;;;;;12.88;6.93;;;;;;;13.41;81.63;98736.88;5069748;28;20464;-81
2023/10/27 00:23:32;;;;;;;;;;;;;;;13.64;81.01;98747.41;5069688;28;20035;-81
2023/10/27 00:25:58;;;;;;;12.43;5.85;;;;;;;13.63;80.69;98728.03;5070301;28;19956;-81
2023/10/27 00:28:23;;;;;;;13.90;5.80;;;;;;;13.64;78.96;98753.59;5068149;28;20040;-81
2023/10/27 00:30:49;;;;;;;16.25;6.65;;;;;;;13.41;78.01;98759.88;5071022;28;20032;-81
2023/10/27 00:33:14;;;;;;;13.20;6.72;;;;;;;13.02;77.18;98732.28;5070196;28;20029;-81
2023/10/27 00:35:39;;;;;;;;;;;;;;;13.31;76.82;98764.63;5070427;28;20032;-81
2023/10/27 00:38:05;;;;;;;15.48;7.20;;;;;;;13.11;77.40;98735.47;5065628;28;19947;-81
2023/10/27 00:40:31;;;;;;;21.83;6.07;;;;;;;13.34;76.35;98761.03;5053342;28;20110;-81
2023/10/27 00:42:57;;;;;;;10.63;5.00;;;;;;;13.21;76.38;98734.16;5068357;28;20090;-81
2023/10/27 00:45:24;;;;;;;18.60;6.05;;;;;;;13.15;76.99;98759.09;5072091;28;20127;-80
2023/10/27 00:47:49;;;;;;;12.23;6.13;;;;;;;13.36;76.42;98767.13;5068186;28;20529;-81
2023/10/27 00:50:15;;;;;;;11.95;6.63;;;;;;;13.24;76.41;98748.13;5068053;28;20024;-81
2023/10/27 00:52:40;;;;;;;;;;;;;;;13.42;77.49;98778.34;5069053;28;20119;-81
2023/10/27 00:55:06;;;;;;;19.45;5.47;;;;;;;13.42;77.24;98757.16;5069274;28;19915;-81
2023/10/27 00:57:34;;;;;;;20.50;5.95;;;;;;;13.51;77.34;98760.34;5068253;28;20060;-81
2023/10/27 01:00:00;;;;;;;14.07;5.88;;;;;;;13.40;78.91;98753.69;5068311;28;20047;-81
2023/10/27 01:02:26;;;;;;;12.18;6.05;;;;;;;13.61;78.73;98764.34;5068314;28;20036;-82
2023/10/27 01:04:52;;;;;;;16.02;5.00;;;;;;;13.59;78.91;98747.63;5066743;28;20037;-81
2023/10/27 01:07:17;;;;;;;;;;;;;;;13.76;79.50;98766.34;5078744;28;20043;-81
2023/10/27 01:09:43;;;;;;;14.40;5.93;;;;;;;13.75;79.68;98743.41;5088307;28;20052;-83
2023/10/27 01:12:09;;;;;;;12.40;5.75;;;;;;;13.77;79.10;98730.94;5065906;28;20589;-80
2023/10/27 01:14:34;;;;;;;15.90;6.32;;;;;;;13.79;80.23;98737.03;5085338;28;20032;-80
2023/10/27 01:17:00;;;;;;;8.38;4.95;;;;;;;13.67;81.57;98729.63;5087388;28;20501;-80
2023/10/27 01:19:25;;;;;;;16.65;5.47;;;;;;;13.77;81.73;98735.38;5088568;28;20508;-81
2023/10/27 01:21:50;;;;;;;;;;;;;;;13.86;80.84;98742.09;5093497;28;20031;-80
2023/10/27 01:24:16;;;;;;;;;;;;;;;13.83;81.46;98740.41;5093795;28;19973;-80
2023/10/27 01:26:41;;;;;;;;;;;;;;;13.90;81.54;98743.66;5093683;28;19916;-80
2023/10/27 01:29:06;;;;;;;12.30;4.10;;;;;;;13.81;81.09;98712.25;5091396;28;19916;-80
2023/10/27 01:31:32;;;;;;;;;;;;;;;13.75;82.74;98743.41;5093644;28;20032;-82
2023/10/27 01:33:57;;;;;;;10.90;4.97;;;;;;;13.98;81.57;98762.75;5093389;28;19942;-80
2023/10/27 01:36:23;;;;;;;12.20;6.78;;;;;;;14.00;81.58;98752.94;5092811;28;20055;-81
2023/10/27 01:38:48;;;;;;;;;;;;;;;14.07;81.63;98772.97;5085273;28;20024;-81
2023/10/27 01:41:13;;;;;;;18.52;5.78;;;;;;;13.95;81.49;98746.97;5072983;28;20259;-82
2023/10/27 01:43:39;;;;;;;9.85;5.82;;;;;;;13.82;81.07;98721.94;5060286;28;20041;-81
2023/10/27 01:46:04;;;;;;;9.20;5.25;;;;;;;13.85;79.37;98735.91;5052508;28;20054;-81
2023/10/27 01:48:30;;;;;;;;;;;;;;;13.83;79.83;98771.38;5053189;28;20502;-82
2023/10/27 01:50:55;;;;;;;8.60;5.18;;;;;;;13.73;79.46;98737.31;5073060;28;20624;-81
2023/10/27 01:53:21;;;;;;;18.48;5.03;;;;;;;13.74;80.88;98744.31;5072350;28;20097;-82
2023/10/27 01:55:46;;;;;;;10.13;5.72;;;;;;;13.87;81.68;98739.38;5072622;28;20108;-81
2023/10/27 01:58:12;;;;;;;12.90;6.35;;;;;;;13.92;82.26;98753.28;5074102;28;20476;-81
2023/10/27 02:00:37;;;;;;;10.02;4.95;;;;;;;13.85;81.72;98764.19;5074057;28;20032;-81
2023/10/27 02:03:03;;;;;;;;;;;;;;;13.97;79.88;98763.66;5072692;28;20045;-81
2023/10/27 02:05:28;;;;;;;8.15;3.97;;;;;;;13.78;79.08;98756.50;5071539;28;20007;-82
2023/10/27 02:07:53;;;;;;;14.15;5.20;;;;;;;13.71;80.20;98747.09;5072436;28;20044;-80
2023/10/27 02:10:19;;;;;;;9.68;4.47;;;;;;;13.71;80.04;98747.09;5087736;28;20059;-80
2023/10/27 02:12:45;;;;;;;10.73;4.00;;;;;;;13.67;79.96;98758.78;5092625;28;20032;-80
2023/10/27 02:15:11;;;;;;;;;;;;;;;13.85;79.56;98796.00;5092779;28;20477;-81
2023/10/27 02:17:39;;;;;;;5.78;3.55;;;;;;;13.60;79.46;98731.66;5092395;28;19916;-81
2023/10/27 02:20:06;;;;;;;14.00;4.65;;;;;;;13.92;79.59;98773.63;5092212;28;20148;-81
2023/10/27 02:22:31;;;;;;;10.55;4.82;;;;;;;13.98;80.00;98791.91;5090766;28;20115;-80
2023/10/27 02:24:57;;;;;;;15.93;4.25;;;;;;;13.87;80.50;98788.84;5092275;28;20119;-81
2023/10/27 02:27:22;;;;;;;11.13;5.20;;;;;;;13.77;79.87;98780.44;5071639;28;20033;-81
2023/10/27 02:29:48;;;;;;;;;;;;;;;13.70;79.94;98794.88;5070867;28;20494;-81
2023/10/27 02:32:13;;;;;;;12.68;4.50;;;;;;;13.58;79.97;98764.47;5070638;28;20347;-80
2023/10/27 02:34:38;;;;;;;;;;;;;;;13.60;79.57;98778.50;5070508;28;20029;-80
2023/10/27 02:37:04;;;;;;;12.55;4.95;;;;;;;13.63;79.42;98782.81;5070744;28;19908;-81
2023/10/27 02:39:30;;;;;;;12.10;6.57;;;;;;;13.61;79.27;98778.44;5070214;28;20039;-81
2023/10/27 02:41:55;;;;;;;7.97;3.60;;;;;;;13.57;79.08;98770.69;5070327;28;20025;-81
2023/10/27 02:44:20;;;;;;;;;;;;;;;13.54;79.58;98782.25;5072025;28;20029;-80
2023/10/27 02:46:46;;;;;;;13.77;4.53;;;;;;;13.59;80.18;98776.75;5068167;28;19912;-80
2023/10/27 02:49:12;;;;;;;19.73;6.47;;;;;;;13.36;79.93;98741.50;5070506;28;20514;-80
2023/10/27 02:51:37;;;;;;;7.70;5.15;;;;;;;13.52;79.92;98754.97;5070248;28;20025;-81
2023/10/27 02:54:03;;;;;;;11.25;4.88;;;;;;;13.56;80.50;98758.34;5080531;28;20053;-81
2023/10/27 02:56:29;;;;;;;10.55;5.65;;;;;;;13.53;80.27;98745.22;5090273;28;20042;-82
2023/10/27 02:58:55;;;;;;;6.82;4.70;;;;;;;13.43;81.23;98712.97;5090980;28;20525;-81
2023/10/27 03:01:20;;;;;;;;;;;;;;;13.66;80.37;98751.75;5091761;28;20032;-81
2023/10/27 03:03:46;;;;;;;15.82;5.00;;;;;;;13.51;80.75;98721.44;5089355;28;19920;-81
2023/10/27 03:06:12;;;;;;;;;;;;;;;13.63;80.39;98743.91;5091855;28;20116;-81
2023/10/27 03:08:39;;;;;;;15.70;4.40;;;;;;;13.39;80.60;98704.31;5091242;28;19912;-81
2023/10/27 03:11:05;;;;;;;19.02;5.82;;;;;;;13.24;80.17;98715.50;5091324;28;20027;-81
2023/10/27 03:13:31;;;;;;;17.10;4.80;;;;;;;13.24;80.66;98710.22;5091410;28;20020;-80
2023/10/27 03:15:58;;;;;;;14.40;5.75;;;;;;;13.33;81.43;98736.34;5086240;28;20029;-81
2023/10/27 03:18:24;;;;;;;8.63;5.63;;;;;;;13.47;80.97;98754.31;5091112;28;20071;-80
2023/10/27 03:21:03;;;;;;;8.25;4.13;;;;;;;13.61;81.09;98767.84;5090377;28;20122;-81
2023/10/27 03:23:29;;;;;;;8.52;4.18;;;;;;;13.49;81.49;98752.44;5091111;28;20024;-81
2023/10/27 03:25:55;;;;;;;6.30;3.38;;;;;;;13.63;80.66;98757.16;5090172;28;20089;-81
2023/10/27 03:28:20;;;;;;;;;;;;;;;13.69;80.72;98758.72;5090242;28;20028;-81
2023/10/27 03:30:48;;;;;;;8.10;3.63;;;;;;;13.49;81.67;98746.31;5089036;28;19934;-81
2023/10/27 03:33:14;;;;;;;16.63;5.72;;;;;;;13.47;81.92;98734.88;5071434;28;20137;-81
2023/10/27 03:35:42;;;;;;;8.35;4.03;;;;;;;13.60;81.33;98739.59;5070503;28;20111;-81
2023/10/27 03:38:09;;;;;;;15.18;4.38;;;;;;;13.76;80.64;98765.44;5088032;28;20048;-82
2023/10/27 03:40:35;;;;;;;16.02;5.07;;;;;;;13.76;80.87;98773.41;5090074;28;20074;-79
2023/10/27 03:43:00;;;;;;;9.32;4.68;;;;;;;13.72;80.84;98775.34;5087854;28;20032;-81
2023/10/27 03:45:26;;;;;;;7.97;4.45;;;;;;;13.63;81.34;98743.91;5088739;28;20516;-78
2023/10/27 03:47:51;;;;;;;;;;;;;;;13.68;81.51;98773.72;5088785;28;20032;-81
2023/10/27 03:50:17;;;;;;;8.73;4.38;;;;;;;13.40;81.83;98724.56;5089403;28;19916;-81
2023/10/27 03:52:42;;;;;;;;;;;;;;;13.72;81.56;98774.47;5090173;28;20028;-78
2023/10/27 03:55:11;;;;;;;6.93;4.53;;;;;;;13.75;81.16;98743.41;5069605;28;19913;-81
2023/10/27 03:57:40;;;;;;;6.72;3.85;;;;;;;13.68;81.07;98749.88;5070759;28;20036;-80
2023/10/27 04:00:09;;;;;;;12.13;3.95;;;;;;;13.66;81.51;98742.94;5065532;28;20044;-80
2023/10/27 04:02:35;;;;;;;6.50;4.00;;;;;;;13.61;81.43;98738.69;5069844;28;20093;-81
2023/10/27 04:05:00;;;;;;;13.35;4.78;;;;;;;13.71;81.22;98752.41;5069707;28;20115;-82
2023/10/27 04:07:26;;;;;;;;;;;;;;;13.61;81.11;98751.94;5073310;28;20043;-82
2023/10/27 04:09:52;;;;;;;16.65;4.88;;;;;;;13.48;80.43;98718.94;5076126;28;19969;-80
2023/10/27 04:12:17;;;;;;;;;;;;;;;13.65;80.22;98742.06;5073759;28;20494;-81
2023/10/27 04:14:43;;;;;;;9.93;4.60;;;;;;;13.52;80.79;98740.88;5076234;28;19912;-81
2023/10/27 04:17:08;;;;;;;5.93;3.85;;;;;;;13.66;79.85;98750.88;5080375;28;20024;-81
2023/10/27 04:19:34;;;;;;;16.35;4.97;;;;;;;13.20;79.71;98682.97;5070413;28;20483;-80
2023/10/27 04:21:59;;;;;;;;;;;;;;;13.63;79.93;98753.66;5076883;28;20028;-80
2023/10/27 04:24:25;;;;;;;;;;;;;;;13.58;79.49;98752.06;5082642;28;19912;-80
2023/10/27 04:26:50;;;;;;;9.73;4.05;;;;;;;13.47;79.55;98730.47;5070495;28;20318;-80
2023/10/27 04:29:17;;;;;;;;;;;;;;;13.57;80.29;98754.78;5087396;28;20077;-80
2023/10/27 04:31:44;;;;;;;10.13;5.30;;;;;;;13.49;79.98;98699.47;5088625;28;19908;-80
2023/10/27 04:34:10;;;;;;;8.45;4.55;;;;;;;13.45;80.06;98697.88;5088161;28;20039;-81
2023/10/27 04:36:36;;;;;;;10.43;5.22;;;;;;;13.69;79.52;98735.72;5087101;28;20351;-81
2023/10/27 04:39:03;;;;;;;7.05;3.67;;;;;;;13.63;79.48;98704.19;5087120;28;20106;-84
2023/10/27 04:41:30;;;;;;;11.60;4.10;;;;;;;13.60;79.00;98705.16;5067673;28;20079;-84
2023/10/27 04:43:59;;;;;;;6.95;4.10;;;;;;;13.54;79.69;98701.91;5069276;28;20075;-82
2023/10/27 04:46:24;;;;;;;11.18;5.05;;;;;;;13.50;80.05;98719.75;5065792;28;20388;-81
2023/10/27 04:48:50;;;;;;;7.28;4.30;;;;;;;13.39;80.91;98704.31;5065036;28;20040;-85
2023/10/27 04:51:16;;;;;;;7.93;3.13;;;;;;;13.46;80.65;98709.34;5066396;28;20025;-84
2023/10/27 04:53:41;;;;;;;7.82;3.63;;;;;;;13.57;80.52;98705.28;5061842;28;20028;-81
2023/10/27 04:56:07;;;;;;;6.78;3.60;;;;;;;13.59;80.12;98742.31;5060099;28;20036;-80
2023/10/27 04:58:32;;;;;;;;;;;;;;;13.46;80.88;98728.75;5071817;28;20425;-81
2023/10/27 05:00:58;;;;;;;9.38;3.33;;;;;;;13.52;81.82;98714.38;5072227;28;19916;-80
2023/10/27 05:03:23;;;;;;;15.13;4.35;;;;;;;13.64;82.24;98707.69;5072732;28;20033;-80
2023/10/27 05:05:49;;;;;;;;;;;;;;;13.95;81.23;98736.38;5071772;28;20036;-81
2023/10/27 05:08:14;;;;;;;7.70;5.00;;;;;;;13.78;78.63;98721.22;5072821;28;19915;-80
2023/10/27 05:10:40;;;;;;;;;;;;;;;13.62;79.56;98750.13;5072204;28;20535;-80
2023/10/27 05:13:07;;;;;;;10.95;4.47;;;;;;;13.57;79.73;98731.78;5072457;28;19970;-80
2023/10/27 05:15:32;;;;;;;9.68;4.40;;;;;;;13.79;78.40;98758.25;5072341;28;20025;-80
2023/10/27 05:18:04;;;;;;;9.77;3.50;;;;;;;13.76;79.72;98749.53;5072479;28;20032;-80
2023/10/27 05:20:38;;;;;;;7.20;4.20;;;;;;;13.58;80.35;98707.03;5072179;28;20032;-79
2023/10/27 05:23:04;;;;;;;7.38;4.10;;;;;;;13.99;79.82;98743.25;5064984;28;20036;-79
2023/10/27 05:25:30;;;;;;;12.15;4.18;;;;;;;14.14;79.85;98760.28;5082320;28;20026;-79
2023/10/27 05:27:55;;;;;;;19.98;4.68;;;;;;;14.13;79.43;98722.28;5064485;28;20040;-79
2023/10/27 05:30:20;;;;;;;22.27;4.95;;;;;;;14.32;79.44;98729.41;5071510;28;20037;-79
2023/10/27 05:32:46;;;;;;;11.27;5.65;;;;;;;14.39;79.33;98749.41;5071536;28;20058;-79
2023/10/27 05:35:12;;;;;;;10.38;5.28;;;;;;;14.58;78.74;98754.75;5069455;28;20060;-80
2023/10/27 05:37:37;;;;;;;;;;;;;;;14.56;78.81;98758.41;5072640;28;20403;-79
2023/10/27 05:40:03;;;;;;;10.00;4.93;;;;;;;14.40;79.12;98729.06;5071768;28;19954;-79
2023/10/27 05:42:29;;;;;;;;;;;;;;;14.54;77.61;98765.59;5070587;28;20528;-79
2023/10/27 05:44:54;;;;;;;16.63;4.75;;;;;;;14.24;78.15;98723.59;5072043;28;19999;-78
2023/10/27 05:47:20;;;;;;;8.50;4.82;;;;;;;14.43;77.38;98744.84;5071433;28;20170;-78
2023/10/27 05:49:45;;;;;;;13.65;5.30;;;;;;;14.70;78.41;98769.25;5071305;28;20031;-78
2023/10/27 05:52:11;;;;;;;17.05;5.95;;;;;;;14.79;78.58;98758.22;5071462;28;20162;-78
2023/10/27 05:54:37;;;;;;;15.65;7.38;;;;;;;14.98;78.66;98746.72;5070928;28;20024;-78
2023/10/27 05:57:03;;;;;;;12.27;6.22;;;;;;;15.19;77.95;98745.66;5071404;28;20129;-79
2023/10/27 05:59:28;;;;;;;15.40;5.90;;;;;;;15.32;77.61;98739.75;5070824;28;20021;-78
2023/10/27 06:01:54;;;;;;;;;;;;;;;15.51;77.04;98779.59;5071739;28;20043;-78
2023/10/27 06:04:21;;;;;;;20.55;5.93;;;;;;;15.69;77.03;98780.44;5071345;28;19923;-78
2023/10/27 06:06:46;;;;;;;16.60;6.10;;;;;;;15.62;76.67;98760.44;5069957;28;20074;-78
2023/10/27 06:09:12;;;;;;;13.15;5.97;;;;;;;15.59;76.70;98732.22;5071033;28;20037;-78
2023/10/27 06:11:37;;;;;;;19.02;6.30;;;;;;;15.88;76.76;98764.44;5071419;28;20038;-78
2023/10/27 06:14:03;;;;;;;38.20;15.88;;;;;;;15.96;76.56;98766.69;5071198;28;20052;-78
2023/10/27 06:16:28;;;;;;;13.15;7.78;;;;;;;15.95;76.75;98728.59;5070877;28;20058;-78
2023/10/27 06:18:54;;;;;;;13.65;7.07;;;;;;;16.20;76.50;98729.97;5071006;28;20135;-79
2023/10/27 06:21:19;;;;;;;;;;;;;;;16.43;76.04;98764.19;5070462;28;20082;-78
2023/10/27 06:23:45;;;;;;;22.17;10.00;;;;;;;16.72;75.70;98745.78;5071065;28;19989;-80
2023/10/27 06:26:10;;;;;;;13.05;9.85;;;;;;;16.73;74.52;98726.19;5070640;28;20082;-80
2023/10/27 06:28:36;;;;;;;13.07;7.45;;;;;;;16.54;74.86;98715.69;5059713;28;20107;-80
2023/10/27 06:31:02;;;;;;;11.73;5.63;;;;;;;16.91;74.34;98760.75;5068200;28;20142;-80
2023/10/27 06:33:32;;;;;;;12.20;6.05;;;;;;;16.69;74.88;98745.94;5070133;28;20025;-79
2023/10/27 06:35:58;;;;;;;15.05;5.13;;;;;;;16.89;74.26;98747.53;5070070;28;20513;-79
2023/10/27 06:38:23;;;;;;;17.90;5.40;;;;;;;16.95;74.36;98723.22;5069792;28;20044;-79
2023/10/27 06:40:49;;;;;;;6.70;4.43;;;;;;;17.11;73.41;98736.50;5068865;28;20032;-80
2023/10/27 06:43:14;;;;;;;8.60;4.57;;;;;;;16.92;73.69;98715.38;5062748;28;20106;-80
2023/10/27 06:45:40;;;;;;;14.02;5.28;;;;;;;17.47;73.21;98745.13;5070440;28;20048;-81
2023/10/27 06:48:06;;;;;;;9.10;5.40;;;;;;;17.72;71.91;98760.56;5069862;28;20040;-84
2023/10/27 06:50:31;;;;;;;11.25;4.47;;;;;;;18.04;70.96;98769.34;5070278;28;20051;-83
2023/10/27 06:52:57;;;;;;;21.58;5.47;;;;;;;18.33;70.97;98750.66;5069970;28;20031;-81
2023/10/27 06:55:22;;;;;;;15.82;4.97;;;;;;;18.52;70.02;98744.19;5069515;28;20111;-83
2023/10/27 06:57:48;;;;;;;25.73;6.38;;;;;;;18.77;68.52;98740.84;5079895;28;20043;-83
2023/10/27 07:00:15;;;;;;;14.45;5.05;;;;;;;18.88;68.48;98738.34;5070580;28;20490;-82
2023/10/27 07:02:41;;;;;;;12.85;4.82;;;;;;;19.08;67.39;98725.53;5069946;28;20028;-82
2023/10/27 07:05:08;;;;;;;18.92;5.00;;;;;;;19.44;66.25;98740.09;5070327;28;20094;-82
2023/10/27 07:07:38;;;;;;;10.13;4.80;;;;;;;19.34;66.20;98715.78;5063352;28;20029;-83
2023/10/27 07:10:04;;;;;;;15.55;6.40;;;;;;;19.66;65.36;98750.19;5069410;28;20505;-82
2023/10/27 07:12:29;;;;;;;14.95;4.82;;;;;;;19.59;65.37;98738.22;5069839;28;20119;-82
2023/10/27 07:14:55;;;;;;;21.67;5.25;;;;;;;19.60;65.17;98740.78;5066426;28;20115;-82
2023/10/27 07:17:20;;;;;;;13.77;4.72;;;;;;;19.23;64.92;98734.34;5068565;28;20036;-84
2023/10/27 07:19:46;;;;;;;6.57;4.30;;;;;;;19.29;64.30;98717.88;5066480;28;20024;-82
2023/10/27 07:22:11;;;;;;;9.80;4.63;;;;;;;18.79;65.44;98678.31;5087243;28;20024;-80
2023/10/27 07:24:37;;;;;;;12.10;5.03;;;;;;;19.11;65.66;98734.19;5086608;28;20089;-81
2023/10/27 07:27:02;;;;;;;20.40;7.15;;;;;;;19.11;65.99;98704.78;5086553;28;20028;-81
2023/10/27 07:29:28;;;;;;;13.68;5.90;;;;;;;19.58;65.62;98731.13;5089623;28;20031;-81
2023/10/27 07:31:53;;;;;;;15.82;5.18;;;;;;;19.86;63.85;98714.09;5088839;28;20020;-78
2023/10/27 07:34:19;;;;;;;12.95;4.97;;;;;;;20.04;62.56;98720.84;5088488;28;20063;-79
2023/10/27 07:36:45;;;;;;;12.90;5.40;;;;;;;20.03;62.68;98734.31;5088497;28;20036;-80
2023/10/27 07:39:10;;;;;;;14.90;5.68;;;;;;;20.09;62.08;98719.66;5084660;28;20036;-80
2023/10/27 07:41:37;;;;;;;9.98;4.80;;;;;;;20.16;61.65;98712.94;5083337;28;20032;-81
2023/10/27 07:44:04;;;;;;;8.20;5.10;;;;;;;20.30;61.07;98711.97;5068321;28;20060;-81
2023/10/27 07:46:29;;;;;;;14.90;4.40;;;;;;;20.22;60.81;98696.44;5068117;28;20066;-80
2023/10/27 07:48:55;;;;;;;18.55;5.38;;;;;;;20.35;59.96;98733.91;5068464;28;20028;-80
2023/10/27 07:51:20;;;;;;;9.18;4.93;;;;;;;20.04;60.88;98702.09;5067752;28;20687;-80
2023/10/27 07:53:46;;;;;;;20.23;4.97;;;;;;;20.31;60.88;98724.38;5068432;28;20530;-80
2023/10/27 07:56:11;;;;;;;10.68;4.55;;;;;;;20.45;60.94;98724.25;5068282;28;20490;-81
2023/10/27 07:58:37;;;;;;;5.72;4.15;;;;;;;20.45;60.42;98724.25;5068159;28;20082;-80
2023/10/27 08:01:05;;;;;;;11.30;4.50;;;;;;;20.27;61.48;98688.09;5069021;28;20056;-80
2023/10/27 08:03:32;;;;;;;12.80;4.57;;;;;;;20.26;61.75;98676.50;5068304;28;20050;-81
2023/10/27 08:05:59;;;;;;;7.25;4.53;;;;;;;20.19;61.82;98700.19;5068433;28;20024;-80
2023/10/27 08:08:24;;;;;;;9.10;3.78;;;;;;;20.34;61.03;98697.38;5068735;28;20097;-80
2023/10/27 08:10:49;;;;;;;11.90;4.10;;;;;;;20.63;59.23;98692.59;5068994;28;20511;-79
2023/10/27 08:13:20;;;;;;;9.35;3.75;;;;;;;20.69;59.56;98697.53;5068350;28;20040;-81
2023/10/27 08:15:46;;;;;;;13.85;5.22;;;;;;;20.61;60.20;98674.94;5083165;28;20173;-82
2023/10/27 08:18:13;;;;;;;9.20;3.60;;;;;;;20.53;60.10;98657.59;5085083;28;20107;-82
2023/10/27 08:20:39;;;;;;;7.50;4.20;;;;;;;20.93;58.21;98670.78;5087129;28;20086;-81
2023/10/27 08:23:04;;;;;;;19.83;3.38;;;;;;;20.91;58.94;98658.44;5088161;28;20644;-83
2023/10/27 08:25:29;;;;;;;8.93;3.70;;;;;;;21.17;57.87;98685.16;5087154;28;20039;-81
2023/10/27 08:27:55;;;;;;;8.13;3.85;;;;;;;20.98;57.38;98664.22;5088234;28;20063;-81
2023/10/27 08:30:20;;;;;;;13.50;3.80;;;;;;;20.81;57.77;98644.88;5078786;28;20650;-80
2023/10/27 08:32:46;;;;;;;11.98;4.13;;;;;;;20.72;58.12;98624.97;5072366;28;20033;-81
2023/10/27 08:35:11;;;;;;;14.82;5.15;;;;;;;20.88;58.20;98656.88;5087438;28;20036;-79
2023/10/27 08:37:37;;;;;;;10.05;4.40;;;;;;;20.87;57.72;98659.66;5072809;28;20024;-81
2023/10/27 08:40:03;;;;;;;14.93;4.65;;;;;;;21.02;58.16;98669.25;5071868;28;20025;-81
2023/10/27 08:42:33;;;;;;;16.55;5.30;;;;;;;21.21;58.43;98674.09;5072116;28;20035;-82
2023/10/27 08:45:00;;;;;;;12.52;6.05;;;;;;;21.37;57.97;98676.44;5071670;28;20020;-80
2023/10/27 08:47:33;;;;;;;10.73;4.72;;;;;;;21.35;57.65;98659.63;5071337;28;20133;-80
2023/10/27 08:50:01;;;;;;;11.48;4.15;;;;;;;21.49;56.29;98668.44;5071715;28;20089;-79
2023/10/27 08:52:31;;;;;;;6.75;3.58;;;;;;;21.06;55.84;98651.94;5071990;28;20028;-81
2023/10/27 08:55:01;;;;;;;13.25;5.00;;;;;;;21.26;55.53;98677.25;5071615;28;20039;-81
2023/10/27 08:57:26;;;;;;;7.93;4.53;;;;;;;20.80;56.84;98632.44;5072529;28;20493;-81
2023/10/27 08:59:52;;;;;;;12.35;4.13;;;;;;;21.04;56.39;98645.00;5072195;28;20111;-82
2023/10/27 09:02:38;;;;;;;8.50;3.25;;;;;;;21.34;55.77;98652.53;5071231;28;20038;-82
2023/10/27 09:05:06;;;;;;;11.45;4.05;;;;;;;21.32;55.86;98646.44;5071156;28;20282;-79
2023/10/27 09:07:32;;;;;;;14.52;4.18;;;;;;;21.25;55.77;98632.63;5071984;28;20442;-80
2023/10/27 09:09:59;;;;;;;6.03;3.05;;;;;;;21.45;55.50;98598.91;5071821;28;20028;-80
2023/10/27 09:12:30;;;;;;;10.77;3.97;;;;;;;21.80;54.65;98634.78;5071059;28;20029;-80
2023/10/27 09:15:22;;;;;;;10.00;2.70;;;;;;;22.22;54.22;98643.09;5087890;28;20040;-80
2023/10/27 09:17:56;;;;;;;3.42;2.72;;;;;;;22.40;53.34;98613.06;5069705;28;20059;-82
2023/10/27 09:20:26;;;;;;;5.13;2.75;;;;;;;22.64;52.73;98611.06;5081968;28;20620;-82
2023/10/27 09:22:56;;;;;;;6.80;2.75;;;;;;;22.61;52.10;98622.06;5070897;28;20039;-82
2023/10/27 09:25:28;;;;;;;5.65;2.67;;;;;;;22.48;51.70;98587.28;5071257;28;20032;-79
2023/10/27 09:27:54;;;;;;;8.73;3.63;;;;;;;22.81;51.01;98585.47;5068212;28;20063;-83
2023/10/27 09:30:33;;;;;;;7.55;2.92;;;;;;;23.22;50.26;98585.69;5069506;28;20410;-82
2023/10/27 09:33:28;;;;;;;8.25;2.80;;;;;;;23.49;49.86;98609.38;5069408;28;20034;-84
2023/10/27 09:35:54;;;;;;;7.00;2.63;;;;;;;23.60;49.67;98609.31;5059943;28;20036;-82
2023/10/27 09:38:22;;;;;;;17.30;3.72;;;;;;;23.51;49.64;98599.34;5069031;28;20017;-83
2023/10/27 09:40:48;;;;;;;6.75;2.72;;;;;;;23.28;49.60;98571.72;5069205;28;20032;-81
2023/10/27 09:43:21;;;;;;;12.25;3.22;;;;;;;23.68;49.01;98579.06;5069526;28;20058;-84
2023/10/27 09:45:47;;;;;;;3.60;2.15;;;;;;;23.82;48.97;98603.91;5068727;28;20112;-82
2023/10/27 09:48:14;;;;;;;7.57;2.92;;;;;;;23.78;49.41;98588.00;5071730;28;20511;-82
2023/10/27 09:50:46;;;;;;;6.95;3.10;;;;;;;23.33;48.98;98520.22;5069560;28;20037;-82
2023/10/27 09:53:14;;;;;;;16.30;3.42;;;;;;;23.58;49.17;98562.00;5070998;28;20089;-84
2023/10/27 09:55:40;;;;;;;5.22;2.15;;;;;;;23.53;48.88;98567.78;5071181;28;20044;-83
2023/10/27 09:58:06;;;;;;;4.40;2.47;;;;;;;23.54;49.06;98550.66;5067535;28;20045;-82
2023/10/27 10:00:32;;;;;;;9.25;2.85;;;;;;;23.49;48.80;98562.78;5070704;28;20075;-85
2023/10/27 10:02:58;;;;;;;8.25;3.05;;;;;;;23.48;49.23;98561.06;5070788;28;20028;-82
2023/10/27 10:05:24;;;;;;;7.18;3.25;;;;;;;23.37;49.23;98538.66;5070724;28;20055;-81
2023/10/27 10:07:57;;;;;;;5.18;2.75;;;;;;;23.42;50.07;98540.94;5067734;28;20028;-82
2023/10/27 10:10:29;;;;;;;3.20;2.00;;;;;;;23.55;49.35;98568.47;5066502;28;20032;-84
2023/10/27 10:13:08;;;;;;;9.43;2.15;;;;;;;23.39;50.14;98554.66;5066020;28;20043;-82
2023/10/27 10:15:40;;;;;;;9.65;3.20;;;;;;;23.43;49.44;98550.69;5070802;28;20040;-81
2023/10/27 10:18:35;;;;;;;12.73;3.70;;;;;;;23.33;49.66;98553.34;5068500;28;20564;-82
2023/10/27 10:21:01;;;;;;;5.68;2.65;;;;;;;23.28;49.50;98507.16;5064681;28;20124;-85
2023/10/27 10:23:40;;;;;;;3.78;2.20;;;;;;;23.72;49.62;98556.25;5069556;28;20119;-84
2023/10/27 10:26:06;;;;;;;7.82;2.90;;;;;;;23.80;49.95;98535.88;5069195;28;20495;-82
2023/10/27 10:28:33;;;;;;;8.40;2.80;;;;;;;24.06;49.85;98531.75;5068065;28;20110;-85
2023/10/27 10:31:21;;;;;;;5.22;3.30;;;;;;;23.86;48.63;98485.06;5068605;28;20115;-82
2023/10/27 10:33:48;;;;;;;5.57;2.80;;;;;;;23.71;49.36;98479.19;5061319;28;20098;-84
2023/10/27 10:36:22;;;;;;;11.50;3.05;;;;;;;23.94;49.58;98525.63;5068624;28;20028;-83
2023/10/27 10:38:51;;;;;;;4.07;2.08;;;;;;;23.71;49.96;98522.25;5069233;28;20115;-83
2023/10/27 10:41:18;;;;;;;9.02;3.03;;;;;;;23.33;50.21;98480.72;5068516;28;20081;-82
2023/10/27 10:43:44;;;;;;;10.52;2.58;;;;;;;23.69;49.53;98485.69;5067744;28;20032;-83
2023/10/27 10:46:11;;;;;;;4.63;2.40;;;;;;;24.04;48.96;98487.94;5068467;28;20043;-82
2023/10/27 10:48:44;;;;;;;7.25;3.55;;;;;;;24.49;47.81;98500.06;5068871;28;20032;-81
2023/10/27 10:51:15;;;;;;;10.02;4.40;;;;;;;24.43;47.94;98492.56;5068952;28;20475;-82
2023/10/27 10:53:52;;;;;;;5.55;2.58;;;;;;;24.13;48.04;98462.88;5068412;28;20086;-82
2023/10/27 10:56:18;;;;;;;8.52;2.92;;;;;;;24.47;47.79;98494.81;5068708;28;20044;-81
2023/10/27 10:58:44;;;;;;;10.23;3.92;;;;;;;24.20;47.37;98462.31;5069366;28;20040;-81
2023/10/27 11:01:18;;;;;;;10.30;3.53;;;;;;;24.26;47.75;98473.38;5070102;28;20074;-82
2023/10/27 11:03:47;;;;;;;6.38;2.50;;;;;;;24.71;47.09;98501.66;5069876;28;20115;-82
2023/10/27 11:06:13;;;;;;;9.82;3.72;;;;;;;24.24;47.51;98490.69;5070038;28;20024;-82
2023/10/27 11:08:39;;;;;;;7.30;3.00;;;;;;;24.47;47.78;98508.31;5070607;28;20120;-82
2023/10/27 11:11:05;;;;;;;8.38;3.17;;;;;;;24.37;47.87;98469.72;5069828;28;20064;-81
2023/10/27 11:13:38;;;;;;;10.93;3.10;;;;;;;24.55;48.08;98488.72;5068863;28;20032;-85
2023/10/27 11:16:19;;;;;;;6.00;3.00;;;;;;;24.23;46.86;98459.34;5069069;28;20379;-83
2023/10/27 11:18:46;;;;;;;9.60;3.28;;;;;;;24.33;46.78;98462.03;5089881;28;20036;-82
2023/10/27 11:21:16;;;;;;;3.78;2.25;;;;;;;24.32;45.97;98455.81;5070212;28;20039;-82
2023/10/27 11:23:42;;;;;;;11.10;3.00;;;;;;;24.43;46.02;98488.00;5068879;28;20078;-82
2023/10/27 11:26:08;;;;;;;7.22;3.15;;;;;;;24.32;46.51;98477.38;5069297;28;20020;-83
2023/10/27 11:28:40;;;;;;;8.23;3.33;;;;;;;24.75;46.03;98467.22;5068720;28;20040;-83
2023/10/27 11:31:13;;;;;;;14.57;4.32;;;;;;;24.99;44.92;98489.19;5073330;28;20086;-84
2023/10/27 11:33:59;;;;;;;15.52;5.30;;;;;;;24.84;44.88;98507.63;5067215;28;20063;-83
2023/10/27 11:36:28;;;;;;;13.48;4.68;;;;;;;24.55;44.85;98471.72;5067707;28;20471;-84